sensor_id;sensor_type;location;lat;lon;timestamp;temperature;humidity
31391;DHT22;18022;45.492;11.548;2023-08-21T00:01:41;24.70;99.90
31391;DHT22;18022;45.492;11.548;2023-08-21T00:04:07;24.70;99.90
31391;DHT22;18022;45.492;11.548;2023-08-21T00:06:33;24.60;99.90
31391;DHT22;18022;45.492;11.548;2023-08-21T00:08:59;24.40;99.90
31391;DHT22;18022;45.492;11.548;2023-08-21T00:11:25;24.20;99.90
31391;DHT22;18022;45.492;11.548;2023-08-21T00:13:51;24.20;99.90
31391;DHT22;18022;45.492;11.548;2023-08-21T00:16:17;24.30;99.90
31391;DHT22;18022;45.492;11.548;2023-08-21T00:18:43;24.40;99.90
31391;DHT22;18022;45.492;11.548;2023-08-21T00:21:09;24.40;99.90
31391;DHT22;18022;45.492;11.548;2023-08-21T00:23:34;24.40;99.90
31391;DHT22;18022;45.492;11.548;2023-08-21T00:26:00;24.50;99.90
31391;DHT22;18022;45.492;11.548;2023-08-21T00:28:26;24.50;99.90
31391;DHT22;18022;45.492;11.548;2023-08-21T00:30:59;24.30;99.90
31391;DHT22;18022;45.492;11.548;2023-08-21T00:33:25;24.30;99.90
31391;DHT22;18022;45.492;11.548;2023-08-21T00:35:50;24.30;99.90
31391;DHT22;18022;45.492;11.548;2023-08-21T00:38:16;24.20;99.90
31391;DHT22;18022;45.492;11.548;2023-08-21T00:40:42;24.20;99.90
31391;DHT22;18022;45.492;11.548;2023-08-21T00:43:08;24.20;99.90
31391;DHT22;18022;45.492;11.548;2023-08-21T00:45:34;24.10;99.90
31391;DHT22;18022;45.492;11.548;2023-08-21T00:48:00;24.00;99.90
31391;DHT22;18022;45.492;11.548;2023-08-21T00:50:26;23.80;99.90
31391;DHT22;18022;45.492;11.548;2023-08-21T00:52:51;23.80;99.90
31391;DHT22;18022;45.492;11.548;2023-08-21T00:55:17;23.80;99.90
31391;DHT22;18022;45.492;11.548;2023-08-21T00:57:43;23.70;99.90
31391;DHT22;18022;45.492;11.548;2023-08-21T01:00:10;23.70;99.90
31391;DHT22;18022;45.492;11.548;2023-08-21T01:02:36;23.70;99.90
31391;DHT22;18022;45.492;11.548;2023-08-21T01:05:02;23.70;99.90
31391;DHT22;18022;45.492;11.548;2023-08-21T01:07:28;23.80;99.90
31391;DHT22;18022;45.492;11.548;2023-08-21T01:10:01;23.80;99.90
31391;DHT22;18022;45.492;11.548;2023-08-21T01:13:22;23.90;99.90
31391;DHT22;18022;45.492;11.548;2023-08-21T01:15:51;23.90;99.90
31391;DHT22;18022;45.492;11.548;2023-08-21T01:18:18;23.90;99.90
31391;DHT22;18022;45.492;11.548;2023-08-21T01:20:46;24.00;99.90
31391;DHT22;18022;45.492;11.548;2023-08-21T01:23:36;23.90;99.90
31391;DHT22;18022;45.492;11.548;2023-08-21T01:26:02;23.80;99.90
31391;DHT22;18022;45.492;11.548;2023-08-21T01:28:28;23.90;99.90
31391;DHT22;18022;45.492;11.548;2023-08-21T01:31:15;23.90;99.90
31391;DHT22;18022;45.492;11.548;2023-08-21T01:33:45;23.90;99.90
31391;DHT22;18022;45.492;11.548;2023-08-21T01:36:13;23.90;99.90
31391;DHT22;18022;45.492;11.548;2023-08-21T01:38:39;23.90;99.90
31391;DHT22;18022;45.492;11.548;2023-08-21T01:41:05;23.90;99.90
31391;DHT22;18022;45.492;11.548;2023-08-21T01:43:31;23.80;99.90
31391;DHT22;18022;45.492;11.548;2023-08-21T01:45:57;23.80;99.90
31391;DHT22;18022;45.492;11.548;2023-08-21T01:48:23;23.90;99.90
31391;DHT22;18022;45.492;11.548;2023-08-21T01:50:49;23.90;99.90
31391;DHT22;18022;45.492;11.548;2023-08-21T01:53:14;23.80;99.90
31391;DHT22;18022;45.492;11.548;2023-08-21T01:55:40;23.70;99.90
31391;DHT22;18022;45.492;11.548;2023-08-21T01:58:06;23.60;99.90
31391;DHT22;18022;45.492;11.548;2023-08-21T02:00:31;23.60;99.90
31391;DHT22;18022;45.492;11.548;2023-08-21T02:02:57;23.60;99.90
31391;DHT22;18022;45.492;11.548;2023-08-21T02:05:23;23.50;99.90
31391;DHT22;18022;45.492;11.548;2023-08-21T02:07:48;23.50;99.90
31391;DHT22;18022;45.492;11.548;2023-08-21T02:10:14;23.60;99.90
31391;DHT22;18022;45.492;11.548;2023-08-21T02:12:40;23.60;99.90
31391;DHT22;18022;45.492;11.548;2023-08-21T02:15:06;23.60;99.90
31391;DHT22;18022;45.492;11.548;2023-08-21T02:17:32;23.60;99.90
31391;DHT22;18022;45.492;11.548;2023-08-21T02:19:57;23.60;99.90
31391;DHT22;18022;45.492;11.548;2023-08-21T02:22:23;23.70;99.90
31391;DHT22;18022;45.492;11.548;2023-08-21T02:24:49;23.60;99.90
31391;DHT22;18022;45.492;11.548;2023-08-21T02:27:14;23.50;99.90
31391;DHT22;18022;45.492;11.548;2023-08-21T02:29:40;23.50;99.90
31391;DHT22;18022;45.492;11.548;2023-08-21T02:32:06;23.50;99.90
31391;DHT22;18022;45.492;11.548;2023-08-21T02:34:32;23.50;99.90
31391;DHT22;18022;45.492;11.548;2023-08-21T02:36:58;23.50;99.90
31391;DHT22;18022;45.492;11.548;2023-08-21T02:39:24;23.40;99.90
31391;DHT22;18022;45.492;11.548;2023-08-21T02:41:50;23.40;99.90
31391;DHT22;18022;45.492;11.548;2023-08-21T02:44:15;23.40;99.90
31391;DHT22;18022;45.492;11.548;2023-08-21T02:46:41;23.30;99.90
31391;DHT22;18022;45.492;11.548;2023-08-21T02:49:07;23.30;99.90
31391;DHT22;18022;45.492;11.548;2023-08-21T02:51:32;23.30;99.90
31391;DHT22;18022;45.492;11.548;2023-08-21T02:53:58;23.30;99.90
31391;DHT22;18022;45.492;11.548;2023-08-21T02:56:24;23.30;99.90
31391;DHT22;18022;45.492;11.548;2023-08-21T02:58:49;23.20;99.90
31391;DHT22;18022;45.492;11.548;2023-08-21T03:01:15;23.10;99.90
31391;DHT22;18022;45.492;11.548;2023-08-21T03:03:42;23.10;99.90
31391;DHT22;18022;45.492;11.548;2023-08-21T03:06:08;23.20;99.90
31391;DHT22;18022;45.492;11.548;2023-08-21T03:08:33;23.20;99.90
31391;DHT22;18022;45.492;11.548;2023-08-21T03:10:59;23.30;99.90
31391;DHT22;18022;45.492;11.548;2023-08-21T03:13:25;23.40;99.90
31391;DHT22;18022;45.492;11.548;2023-08-21T03:15:50;23.30;99.90
31391;DHT22;18022;45.492;11.548;2023-08-21T03:18:16;23.20;99.90
31391;DHT22;18022;45.492;11.548;2023-08-21T03:20:45;23.20;99.90
31391;DHT22;18022;45.492;11.548;2023-08-21T03:23:12;23.20;99.90
31391;DHT22;18022;45.492;11.548;2023-08-21T03:25:37;23.20;99.90
31391;DHT22;18022;45.492;11.548;2023-08-21T03:28:03;23.10;99.90
31391;DHT22;18022;45.492;11.548;2023-08-21T03:30:29;23.10;99.90
31391;DHT22;18022;45.492;11.548;2023-08-21T03:32:55;23.10;99.90
31391;DHT22;18022;45.492;11.548;2023-08-21T03:35:20;23.20;99.90
31391;DHT22;18022;45.492;11.548;2023-08-21T03:37:46;23.20;99.90
31391;DHT22;18022;45.492;11.548;2023-08-21T03:40:12;23.20;99.90
31391;DHT22;18022;45.492;11.548;2023-08-21T03:42:38;23.20;99.90
31391;DHT22;18022;45.492;11.548;2023-08-21T03:45:04;23.10;99.90
31391;DHT22;18022;45.492;11.548;2023-08-21T03:47:30;23.10;99.90
31391;DHT22;18022;45.492;11.548;2023-08-21T03:49:56;23.00;99.90
31391;DHT22;18022;45.492;11.548;2023-08-21T03:52:22;23.00;99.90
31391;DHT22;18022;45.492;11.548;2023-08-21T03:54:47;23.10;99.90
31391;DHT22;18022;45.492;11.548;2023-08-21T03:57:13;23.00;99.90
31391;DHT22;18022;45.492;11.548;2023-08-21T03:59:39;23.10;99.90
31391;DHT22;18022;45.492;11.548;2023-08-21T04:02:04;23.10;99.90
31391;DHT22;18022;45.492;11.548;2023-08-21T04:04:30;23.00;99.90
31391;DHT22;18022;45.492;11.548;2023-08-21T04:06:56;23.00;99.90
31391;DHT22;18022;45.492;11.548;2023-08-21T04:09:21;23.00;99.90
31391;DHT22;18022;45.492;11.548;2023-08-21T04:11:49;22.90;99.90
31391;DHT22;18022;45.492;11.548;2023-08-21T04:14:14;22.90;99.90
31391;DHT22;18022;45.492;11.548;2023-08-21T04:16:40;22.90;99.90
31391;DHT22;18022;45.492;11.548;2023-08-21T04:19:06;22.80;99.90
31391;DHT22;18022;45.492;11.548;2023-08-21T04:21:31;22.80;99.90
31391;DHT22;18022;45.492;11.548;2023-08-21T04:23:57;22.70;99.90
31391;DHT22;18022;45.492;11.548;2023-08-21T04:26:23;22.70;99.90
31391;DHT22;18022;45.492;11.548;2023-08-21T04:28:48;22.90;99.90
31391;DHT22;18022;45.492;11.548;2023-08-21T04:31:14;22.80;99.90
31391;DHT22;18022;45.492;11.548;2023-08-21T04:33:40;22.90;99.90
31391;DHT22;18022;45.492;11.548;2023-08-21T04:36:06;22.90;99.90
31391;DHT22;18022;45.492;11.548;2023-08-21T04:38:31;22.90;99.90
31391;DHT22;18022;45.492;11.548;2023-08-21T04:41:06;22.80;99.90
31391;DHT22;18022;45.492;11.548;2023-08-21T04:43:32;22.80;99.90
31391;DHT22;18022;45.492;11.548;2023-08-21T04:45:57;22.70;99.90
31391;DHT22;18022;45.492;11.548;2023-08-21T04:48:23;22.80;99.90
31391;DHT22;18022;45.492;11.548;2023-08-21T04:50:49;22.90;99.90
31391;DHT22;18022;45.492;11.548;2023-08-21T04:53:14;22.90;99.90
31391;DHT22;18022;45.492;11.548;2023-08-21T04:55:40;22.80;99.90
31391;DHT22;18022;45.492;11.548;2023-08-21T04:58:07;22.80;99.90
31391;DHT22;18022;45.492;11.548;2023-08-21T05:00:33;22.80;99.90
31391;DHT22;18022;45.492;11.548;2023-08-21T05:02:59;22.90;99.90
31391;DHT22;18022;45.492;11.548;2023-08-21T05:05:25;22.90;99.90
31391;DHT22;18022;45.492;11.548;2023-08-21T05:07:52;23.00;99.90
31391;DHT22;18022;45.492;11.548;2023-08-21T05:10:17;23.00;99.90
31391;DHT22;18022;45.492;11.548;2023-08-21T05:12:43;23.10;99.90
31391;DHT22;18022;45.492;11.548;2023-08-21T05:15:09;23.10;99.90
31391;DHT22;18022;45.492;11.548;2023-08-21T05:17:35;23.20;99.90
31391;DHT22;18022;45.492;11.548;2023-08-21T05:20:00;23.30;99.90
31391;DHT22;18022;45.492;11.548;2023-08-21T05:22:26;23.40;99.90
31391;DHT22;18022;45.492;11.548;2023-08-21T05:24:52;23.40;99.90
31391;DHT22;18022;45.492;11.548;2023-08-21T05:27:17;23.40;99.90
31391;DHT22;18022;45.492;11.548;2023-08-21T05:29:43;23.40;99.90
31391;DHT22;18022;45.492;11.548;2023-08-21T05:32:09;23.30;99.90
31391;DHT22;18022;45.492;11.548;2023-08-21T05:34:35;23.20;99.90
31391;DHT22;18022;45.492;11.548;2023-08-21T05:37:00;23.30;99.90
31391;DHT22;18022;45.492;11.548;2023-08-21T05:39:26;23.40;99.90
31391;DHT22;18022;45.492;11.548;2023-08-21T05:41:52;23.40;99.90
31391;DHT22;18022;45.492;11.548;2023-08-21T05:44:18;23.50;99.90
31391;DHT22;18022;45.492;11.548;2023-08-21T05:46:44;23.60;99.90
31391;DHT22;18022;45.492;11.548;2023-08-21T05:49:09;23.60;99.90
31391;DHT22;18022;45.492;11.548;2023-08-21T05:51:35;23.70;99.90
31391;DHT22;18022;45.492;11.548;2023-08-21T05:54:01;23.80;99.90
31391;DHT22;18022;45.492;11.548;2023-08-21T05:56:26;23.80;99.90
31391;DHT22;18022;45.492;11.548;2023-08-21T05:58:52;23.90;99.90
31391;DHT22;18022;45.492;11.548;2023-08-21T06:01:18;24.50;99.90
31391;DHT22;18022;45.492;11.548;2023-08-21T06:03:43;24.40;99.90
31391;DHT22;18022;45.492;11.548;2023-08-21T06:06:09;24.30;99.90
31391;DHT22;18022;45.492;11.548;2023-08-21T06:08:35;24.30;99.90
31391;DHT22;18022;45.492;11.548;2023-08-21T06:11:00;24.30;99.90
31391;DHT22;18022;45.492;11.548;2023-08-21T06:13:26;24.40;99.90
31391;DHT22;18022;45.492;11.548;2023-08-21T06:15:53;24.40;99.90
31391;DHT22;18022;45.492;11.548;2023-08-21T06:18:19;24.40;99.90
31391;DHT22;18022;45.492;11.548;2023-08-21T06:20:44;24.50;99.90
31391;DHT22;18022;45.492;11.548;2023-08-21T06:23:11;24.60;99.90
31391;DHT22;18022;45.492;11.548;2023-08-21T06:25:37;25.00;99.90
31391;DHT22;18022;45.492;11.548;2023-08-21T06:28:03;25.00;99.90
31391;DHT22;18022;45.492;11.548;2023-08-21T06:30:29;24.90;99.90
31391;DHT22;18022;45.492;11.548;2023-08-21T06:32:55;24.90;99.90
31391;DHT22;18022;45.492;11.548;2023-08-21T06:35:21;25.00;99.90
31391;DHT22;18022;45.492;11.548;2023-08-21T06:37:47;25.10;99.90
31391;DHT22;18022;45.492;11.548;2023-08-21T06:40:13;25.10;99.90
31391;DHT22;18022;45.492;11.548;2023-08-21T06:42:38;25.20;99.90
31391;DHT22;18022;45.492;11.548;2023-08-21T06:45:05;25.30;99.90
31391;DHT22;18022;45.492;11.548;2023-08-21T06:47:31;25.40;99.90
31391;DHT22;18022;45.492;11.548;2023-08-21T06:49:57;25.40;99.90
31391;DHT22;18022;45.492;11.548;2023-08-21T06:52:23;25.40;99.90
31391;DHT22;18022;45.492;11.548;2023-08-21T06:54:49;25.50;99.90
31391;DHT22;18022;45.492;11.548;2023-08-21T06:57:14;25.60;99.90
31391;DHT22;18022;45.492;11.548;2023-08-21T06:59:40;25.70;99.90
31391;DHT22;18022;45.492;11.548;2023-08-21T07:02:06;25.80;99.90
31391;DHT22;18022;45.492;11.548;2023-08-21T07:04:32;25.80;99.90
31391;DHT22;18022;45.492;11.548;2023-08-21T07:06:59;25.90;99.90
31391;DHT22;18022;45.492;11.548;2023-08-21T07:09:24;26.00;99.90
31391;DHT22;18022;45.492;11.548;2023-08-21T07:11:50;26.10;99.90
31391;DHT22;18022;45.492;11.548;2023-08-21T07:14:16;26.20;99.90
31391;DHT22;18022;45.492;11.548;2023-08-21T07:16:43;26.30;99.90
31391;DHT22;18022;45.492;11.548;2023-08-21T07:19:09;26.30;99.90
31391;DHT22;18022;45.492;11.548;2023-08-21T07:21:34;26.50;99.90
31391;DHT22;18022;45.492;11.548;2023-08-21T07:24:04;26.60;99.90
31391;DHT22;18022;45.492;11.548;2023-08-21T07:26:31;26.60;99.90
31391;DHT22;18022;45.492;11.548;2023-08-21T07:28:56;26.60;99.90
31391;DHT22;18022;45.492;11.548;2023-08-21T07:31:23;26.70;99.90
31391;DHT22;18022;45.492;11.548;2023-08-21T07:33:49;26.80;99.90
31391;DHT22;18022;45.492;11.548;2023-08-21T07:36:14;26.90;99.90
31391;DHT22;18022;45.492;11.548;2023-08-21T07:38:45;26.90;99.90
31391;DHT22;18022;45.492;11.548;2023-08-21T07:41:12;27.00;99.90
31391;DHT22;18022;45.492;11.548;2023-08-21T07:43:41;27.10;99.90
31391;DHT22;18022;45.492;11.548;2023-08-21T07:46:09;27.20;99.90
31391;DHT22;18022;45.492;11.548;2023-08-21T07:48:39;27.20;99.90
31391;DHT22;18022;45.492;11.548;2023-08-21T07:51:05;27.30;99.90
31391;DHT22;18022;45.492;11.548;2023-08-21T07:53:30;27.40;99.90
31391;DHT22;18022;45.492;11.548;2023-08-21T07:55:57;27.50;99.90
31391;DHT22;18022;45.492;11.548;2023-08-21T07:58:23;27.60;99.90
31391;DHT22;18022;45.492;11.548;2023-08-21T08:00:49;27.70;99.90
31391;DHT22;18022;45.492;11.548;2023-08-21T08:03:15;27.80;99.90
31391;DHT22;18022;45.492;11.548;2023-08-21T08:05:41;27.80;99.90
31391;DHT22;18022;45.492;11.548;2023-08-21T08:08:08;27.90;99.90
31391;DHT22;18022;45.492;11.548;2023-08-21T08:10:37;28.10;99.90
31391;DHT22;18022;45.492;11.548;2023-08-21T08:13:03;28.20;99.90
31391;DHT22;18022;45.492;11.548;2023-08-21T08:15:28;28.30;99.90
31391;DHT22;18022;45.492;11.548;2023-08-21T08:17:54;28.50;99.90
31391;DHT22;18022;45.492;11.548;2023-08-21T08:20:20;28.70;99.90
31391;DHT22;18022;45.492;11.548;2023-08-21T08:22:46;28.90;99.90
31391;DHT22;18022;45.492;11.548;2023-08-21T08:25:12;29.00;99.90
31391;DHT22;18022;45.492;11.548;2023-08-21T08:27:39;29.10;99.90
31391;DHT22;18022;45.492;11.548;2023-08-21T08:30:05;29.20;99.90
31391;DHT22;18022;45.492;11.548;2023-08-21T08:32:31;29.20;99.90
31391;DHT22;18022;45.492;11.548;2023-08-21T08:34:57;29.30;99.90
31391;DHT22;18022;45.492;11.548;2023-08-21T08:37:23;29.40;99.90
31391;DHT22;18022;45.492;11.548;2023-08-21T08:39:48;29.50;99.90
31391;DHT22;18022;45.492;11.548;2023-08-21T08:42:15;29.60;99.90
31391;DHT22;18022;45.492;11.548;2023-08-21T08:44:43;29.70;99.90
31391;DHT22;18022;45.492;11.548;2023-08-21T08:47:11;29.60;99.90
31391;DHT22;18022;45.492;11.548;2023-08-21T08:49:39;29.70;99.90
31391;DHT22;18022;45.492;11.548;2023-08-21T08:52:05;29.90;99.90
31391;DHT22;18022;45.492;11.548;2023-08-21T08:54:32;29.90;99.90
31391;DHT22;18022;45.492;11.548;2023-08-21T08:56:58;30.00;99.90
31391;DHT22;18022;45.492;11.548;2023-08-21T08:59:24;30.10;99.90
31391;DHT22;18022;45.492;11.548;2023-08-21T09:01:50;30.10;99.90
31391;DHT22;18022;45.492;11.548;2023-08-21T09:04:16;30.10;99.90
31391;DHT22;18022;45.492;11.548;2023-08-21T09:06:42;30.20;99.90
31391;DHT22;18022;45.492;11.548;2023-08-21T09:09:08;30.30;99.90
31391;DHT22;18022;45.492;11.548;2023-08-21T09:11:37;30.30;99.90
31391;DHT22;18022;45.492;11.548;2023-08-21T09:14:07;30.40;99.90
31391;DHT22;18022;45.492;11.548;2023-08-21T09:16:33;30.40;99.90
31391;DHT22;18022;45.492;11.548;2023-08-21T09:18:59;30.40;99.90
31391;DHT22;18022;45.492;11.548;2023-08-21T09:21:25;30.50;99.90
31391;DHT22;18022;45.492;11.548;2023-08-21T09:24:02;30.70;99.90
31391;DHT22;18022;45.492;11.548;2023-08-21T09:26:31;30.90;99.90
31391;DHT22;18022;45.492;11.548;2023-08-21T09:29:04;30.90;99.90
31391;DHT22;18022;45.492;11.548;2023-08-21T09:31:33;31.00;99.90
31391;DHT22;18022;45.492;11.548;2023-08-21T09:34:03;31.00;99.90
31391;DHT22;18022;45.492;11.548;2023-08-21T09:36:32;31.00;99.90
31391;DHT22;18022;45.492;11.548;2023-08-21T09:38:59;31.20;99.90
31391;DHT22;18022;45.492;11.548;2023-08-21T09:41:26;31.20;99.90
31391;DHT22;18022;45.492;11.548;2023-08-21T09:43:52;31.30;99.90
31391;DHT22;18022;45.492;11.548;2023-08-21T09:46:23;31.40;99.90
31391;DHT22;18022;45.492;11.548;2023-08-21T09:48:49;31.40;99.90
31391;DHT22;18022;45.492;11.548;2023-08-21T09:51:17;31.60;99.90
31391;DHT22;18022;45.492;11.548;2023-08-21T09:53:42;31.70;99.90
31391;DHT22;18022;45.492;11.548;2023-08-21T09:56:08;31.70;99.90
31391;DHT22;18022;45.492;11.548;2023-08-21T09:58:37;31.60;99.90
31391;DHT22;18022;45.492;11.548;2023-08-21T10:01:07;31.60;99.90
31391;DHT22;18022;45.492;11.548;2023-08-21T10:03:41;31.70;99.90
31391;DHT22;18022;45.492;11.548;2023-08-21T10:06:09;31.80;99.90
31391;DHT22;18022;45.492;11.548;2023-08-21T10:08:37;31.80;99.60
31391;DHT22;18022;45.492;11.548;2023-08-21T10:11:07;31.80;99.90
31391;DHT22;18022;45.492;11.548;2023-08-21T10:13:35;32.10;99.40
31391;DHT22;18022;45.492;11.548;2023-08-21T10:16:02;32.20;99.20
31391;DHT22;18022;45.492;11.548;2023-08-21T10:18:33;32.10;98.30
31391;DHT22;18022;45.492;11.548;2023-08-21T10:21:13;32.30;98.70
31391;DHT22;18022;45.492;11.548;2023-08-21T10:23:40;32.40;98.20
31391;DHT22;18022;45.492;11.548;2023-08-21T10:26:08;32.40;98.40
31391;DHT22;18022;45.492;11.548;2023-08-21T10:28:53;32.60;99.50
31391;DHT22;18022;45.492;11.548;2023-08-21T10:33:59;32.70;98.40
31391;DHT22;18022;45.492;11.548;2023-08-21T10:42:01;33.00;97.20
31391;DHT22;18022;45.492;11.548;2023-08-21T10:44:35;33.10;97.20
31391;DHT22;18022;45.492;11.548;2023-08-21T10:47:15;33.10;97.10
31391;DHT22;18022;45.492;11.548;2023-08-21T10:49:45;33.10;97.30
31391;DHT22;18022;45.492;11.548;2023-08-21T10:52:11;33.10;96.90
31391;DHT22;18022;45.492;11.548;2023-08-21T10:54:51;33.30;96.60
31391;DHT22;18022;45.492;11.548;2023-08-21T10:57:17;33.40;96.20
31391;DHT22;18022;45.492;11.548;2023-08-21T11:02:27;33.50;96.50
31391;DHT22;18022;45.492;11.548;2023-08-21T11:04:57;33.40;95.00
31391;DHT22;18022;45.492;11.548;2023-08-21T11:07:24;33.50;95.60
31391;DHT22;18022;45.492;11.548;2023-08-21T11:09:50;33.50;94.80
31391;DHT22;18022;45.492;11.548;2023-08-21T11:12:20;33.60;95.00
31391;DHT22;18022;45.492;11.548;2023-08-21T11:14:46;33.30;95.00
31391;DHT22;18022;45.492;11.548;2023-08-21T11:17:12;33.50;94.40
31391;DHT22;18022;45.492;11.548;2023-08-21T11:19:39;33.60;95.10
31391;DHT22;18022;45.492;11.548;2023-08-21T11:22:05;33.70;94.60
31391;DHT22;18022;45.492;11.548;2023-08-21T11:24:47;33.80;94.40
31391;DHT22;18022;45.492;11.548;2023-08-21T11:27:15;33.60;94.00
31391;DHT22;18022;45.492;11.548;2023-08-21T11:29:44;33.80;94.60
31391;DHT22;18022;45.492;11.548;2023-08-21T11:32:17;33.60;94.50
31391;DHT22;18022;45.492;11.548;2023-08-21T11:34:54;33.60;95.20
31391;DHT22;18022;45.492;11.548;2023-08-21T11:37:22;33.40;95.00
31391;DHT22;18022;45.492;11.548;2023-08-21T11:39:53;33.50;95.00
31391;DHT22;18022;45.492;11.548;2023-08-21T11:42:21;33.80;95.00
31391;DHT22;18022;45.492;11.548;2023-08-21T11:44:52;34.00;94.70
31391;DHT22;18022;45.492;11.548;2023-08-21T11:47:21;34.00;95.70
31391;DHT22;18022;45.492;11.548;2023-08-21T11:49:48;34.10;95.10
31391;DHT22;18022;45.492;11.548;2023-08-21T11:52:21;33.90;95.30
31391;DHT22;18022;45.492;11.548;2023-08-21T11:54:52;33.90;95.00
31391;DHT22;18022;45.492;11.548;2023-08-21T11:57:18;33.90;95.50
31391;DHT22;18022;45.492;11.548;2023-08-21T11:59:55;33.90;95.20
31391;DHT22;18022;45.492;11.548;2023-08-21T12:02:26;34.00;95.10
31391;DHT22;18022;45.492;11.548;2023-08-21T12:05:01;34.10;94.50
31391;DHT22;18022;45.492;11.548;2023-08-21T12:07:27;34.10;94.40
31391;DHT22;18022;45.492;11.548;2023-08-21T12:09:53;34.20;95.30
31391;DHT22;18022;45.492;11.548;2023-08-21T12:12:19;34.20;95.90
31391;DHT22;18022;45.492;11.548;2023-08-21T12:14:45;34.10;95.20
31391;DHT22;18022;45.492;11.548;2023-08-21T12:17:11;34.10;95.90
31391;DHT22;18022;45.492;11.548;2023-08-21T12:19:37;34.10;94.90
31391;DHT22;18022;45.492;11.548;2023-08-21T12:22:03;34.10;93.90
31391;DHT22;18022;45.492;11.548;2023-08-21T12:24:30;34.10;94.70
31391;DHT22;18022;45.492;11.548;2023-08-21T12:26:56;34.20;95.50
31391;DHT22;18022;45.492;11.548;2023-08-21T12:29:22;34.30;95.20
31391;DHT22;18022;45.492;11.548;2023-08-21T12:31:48;34.30;94.60
31391;DHT22;18022;45.492;11.548;2023-08-21T12:34:14;34.30;95.40
31391;DHT22;18022;45.492;11.548;2023-08-21T12:36:39;33.90;94.20
31391;DHT22;18022;45.492;11.548;2023-08-21T12:39:06;34.00;94.50
31391;DHT22;18022;45.492;11.548;2023-08-21T12:41:32;34.20;94.60
31391;DHT22;18022;45.492;11.548;2023-08-21T12:44:01;34.30;96.70
31391;DHT22;18022;45.492;11.548;2023-08-21T12:46:29;34.60;95.50
31391;DHT22;18022;45.492;11.548;2023-08-21T12:48:56;34.50;95.50
31391;DHT22;18022;45.492;11.548;2023-08-21T12:51:22;34.40;96.50
31391;DHT22;18022;45.492;11.548;2023-08-21T12:53:48;34.40;96.90
31391;DHT22;18022;45.492;11.548;2023-08-21T12:56:14;34.40;95.30
31391;DHT22;18022;45.492;11.548;2023-08-21T12:58:39;34.40;95.10
31391;DHT22;18022;45.492;11.548;2023-08-21T13:01:05;34.40;95.60
31391;DHT22;18022;45.492;11.548;2023-08-21T13:03:33;34.40;94.10
31391;DHT22;18022;45.492;11.548;2023-08-21T13:05:59;34.60;94.70
31391;DHT22;18022;45.492;11.548;2023-08-21T13:08:24;34.60;94.00
31391;DHT22;18022;45.492;11.548;2023-08-21T13:10:50;34.50;94.70
31391;DHT22;18022;45.492;11.548;2023-08-21T13:13:16;34.40;95.20
31391;DHT22;18022;45.492;11.548;2023-08-21T13:15:42;34.40;95.00
31391;DHT22;18022;45.492;11.548;2023-08-21T13:18:10;34.50;94.70
31391;DHT22;18022;45.492;11.548;2023-08-21T13:20:36;34.60;94.50
31391;DHT22;18022;45.492;11.548;2023-08-21T13:23:02;34.60;95.40
31391;DHT22;18022;45.492;11.548;2023-08-21T13:25:28;34.70;94.90
31391;DHT22;18022;45.492;11.548;2023-08-21T13:27:55;34.60;96.00
31391;DHT22;18022;45.492;11.548;2023-08-21T13:30:21;34.60;94.80
31391;DHT22;18022;45.492;11.548;2023-08-21T13:32:48;34.50;94.10
31391;DHT22;18022;45.492;11.548;2023-08-21T13:35:14;34.30;95.00
31391;DHT22;18022;45.492;11.548;2023-08-21T13:37:40;34.40;95.10
31391;DHT22;18022;45.492;11.548;2023-08-21T13:40:06;34.60;95.60
31391;DHT22;18022;45.492;11.548;2023-08-21T13:42:42;34.70;95.10
31391;DHT22;18022;45.492;11.548;2023-08-21T13:45:13;34.70;94.90
31391;DHT22;18022;45.492;11.548;2023-08-21T13:47:40;34.50;95.40
31391;DHT22;18022;45.492;11.548;2023-08-21T13:50:07;34.40;95.10
31391;DHT22;18022;45.492;11.548;2023-08-21T13:52:33;34.40;95.10
31391;DHT22;18022;45.492;11.548;2023-08-21T13:55:00;34.50;94.70
31391;DHT22;18022;45.492;11.548;2023-08-21T13:57:26;34.60;94.80
31391;DHT22;18022;45.492;11.548;2023-08-21T13:59:52;34.70;95.40
31391;DHT22;18022;45.492;11.548;2023-08-21T14:02:17;34.60;94.10
31391;DHT22;18022;45.492;11.548;2023-08-21T14:04:45;34.40;95.00
31391;DHT22;18022;45.492;11.548;2023-08-21T14:07:11;34.50;94.80
31391;DHT22;18022;45.492;11.548;2023-08-21T14:09:37;34.70;94.00
31391;DHT22;18022;45.492;11.548;2023-08-21T14:12:03;34.70;95.50
31391;DHT22;18022;45.492;11.548;2023-08-21T14:14:29;34.70;94.90
31391;DHT22;18022;45.492;11.548;2023-08-21T14:16:54;34.70;95.20
31391;DHT22;18022;45.492;11.548;2023-08-21T14:19:20;34.70;94.90
31391;DHT22;18022;45.492;11.548;2023-08-21T14:21:46;34.70;94.60
31391;DHT22;18022;45.492;11.548;2023-08-21T14:24:12;34.60;94.40
31391;DHT22;18022;45.492;11.548;2023-08-21T14:26:37;34.70;94.70
31391;DHT22;18022;45.492;11.548;2023-08-21T14:29:05;34.70;95.30
31391;DHT22;18022;45.492;11.548;2023-08-21T14:31:31;34.50;95.10
31391;DHT22;18022;45.492;11.548;2023-08-21T14:33:57;34.40;94.00
31391;DHT22;18022;45.492;11.548;2023-08-21T14:36:23;34.40;95.20
31391;DHT22;18022;45.492;11.548;2023-08-21T14:38:49;34.50;95.60
31391;DHT22;18022;45.492;11.548;2023-08-21T14:41:16;34.40;96.00
31391;DHT22;18022;45.492;11.548;2023-08-21T14:43:42;34.30;94.00
31391;DHT22;18022;45.492;11.548;2023-08-21T14:46:08;34.30;95.00
31391;DHT22;18022;45.492;11.548;2023-08-21T14:48:34;34.30;96.80
31391;DHT22;18022;45.492;11.548;2023-08-21T14:51:00;34.30;96.00
31391;DHT22;18022;45.492;11.548;2023-08-21T14:53:25;34.40;95.50
31391;DHT22;18022;45.492;11.548;2023-08-21T14:55:51;34.40;97.10
31391;DHT22;18022;45.492;11.548;2023-08-21T14:58:17;34.30;94.30
31391;DHT22;18022;45.492;11.548;2023-08-21T15:00:42;34.30;95.00
31391;DHT22;18022;45.492;11.548;2023-08-21T15:03:08;34.30;95.10
31391;DHT22;18022;45.492;11.548;2023-08-21T15:05:34;34.20;95.80
31391;DHT22;18022;45.492;11.548;2023-08-21T15:07:59;34.20;95.20
31391;DHT22;18022;45.492;11.548;2023-08-21T15:10:27;34.20;94.70
31391;DHT22;18022;45.492;11.548;2023-08-21T15:12:52;34.10;95.20
31391;DHT22;18022;45.492;11.548;2023-08-21T15:15:18;34.10;96.00
31391;DHT22;18022;45.492;11.548;2023-08-21T15:17:46;34.10;95.90
31391;DHT22;18022;45.492;11.548;2023-08-21T15:20:12;34.10;94.30
31391;DHT22;18022;45.492;11.548;2023-08-21T15:22:40;34.10;94.90
31391;DHT22;18022;45.492;11.548;2023-08-21T15:25:06;34.10;95.90